Time;durP1;ratioP1;P1;durP2;ratioP2;P2;SDS_P1;SDS_P2;PMS_P1;PMS_P2;Temp;Humidity;BMP_temperature;BMP_pressure;BME280_temperature;BME280_humidity;BME280_pressure;Samples;Min_cycle;Max_cycle;Signal;HPM_P1;HPM_P2
2022/10/23 00:01:15;;;;;;;;;6.25;4.50;;;;;18.02;70.17;100727.19;5078875;28;45337;-42
2022/10/23 00:03:41;;;;;;;;;2.75;2.75;;;;;17.98;70.11;100712.47;5079020;27;45363;-42
2022/10/23 00:06:07;;;;;;;;;8.75;5.00;;;;;18.04;70.12;100720.59;5078423;27;46072;-41
2022/10/23 00:08:33;;;;;;;;;5.00;3.50;;;;;17.93;70.07;100691.53;5078529;28;45416;-45
2022/10/23 00:10:58;;;;;;;;;4.75;4.00;;;;;18.04;70.13;100701.75;5078758;27;45803;-41
2022/10/23 00:13:23;;;;;;;;;4.00;4.00;;;;;18.05;70.01;100699.88;5078875;27;45367;-43
2022/10/23 00:15:49;;;;;;;;;4.50;4.25;;;;;18.04;69.75;100692.84;5078474;28;47211;-42
2022/10/23 00:18:14;;;;;;;;;4.00;4.00;;;;;17.96;70.08;100680.38;5078361;27;45394;-41
2022/10/23 00:20:40;;;;;;;;;4.00;4.00;;;;;18.01;70.55;100696.75;5078791;27;45753;-43
2022/10/23 00:23:05;;;;;;;;;3.00;2.50;;;;;17.92;70.74;100690.69;5078606;27;45339;-42
2022/10/23 00:25:32;;;;;;;;;3.00;3.00;;;;;17.87;71.06;100695.00;5077766;27;45446;-42
2022/10/23 00:27:58;;;;;;;;;3.50;3.50;;;;;17.87;70.71;100693.16;5078531;27;45373;-42
2022/10/23 00:30:23;;;;;;;;;3.00;3.00;;;;;17.79;70.75;100668.25;5078657;27;45277;-42
2022/10/23 00:32:49;;;;;;;;;6.25;3.50;;;;;17.87;71.02;100682.38;5078757;27;45784;-42
2022/10/23 00:35:14;;;;;;;;;3.75;3.50;;;;;17.82;70.86;100681.28;5078346;27;45607;-42
2022/10/23 00:37:39;;;;;;;;;6.00;4.50;;;;;17.82;71.24;100692.03;5078434;28;45378;-43
2022/10/23 00:40:05;;;;;;;;;3.00;3.00;;;;;17.81;71.13;100691.22;5078611;27;45303;-42
2022/10/23 00:42:31;;;;;;;;;5.00;3.00;;;;;17.74;71.28;100681.41;5078229;27;45386;-46
2022/10/23 00:45:19;;;;;;;;;4.75;4.75;;;;;17.78;70.90;100678.19;5076797;27;45464;-41
2022/10/23 00:47:45;;;;;;;;;5.00;3.00;;;;;17.79;71.23;100663.69;5077713;27;45290;-43
2022/10/23 00:50:11;;;;;;;;;3.50;3.50;;;;;17.81;71.21;100658.94;5078249;27;45318;-45
2022/10/23 00:52:41;;;;;;;;;6.75;4.75;;;;;17.83;71.09;100656.88;5078407;27;45176;-42
2022/10/23 00:55:07;;;;;;;;;5.75;3.50;;;;;17.82;71.18;100657.91;5077754;27;47143;-43
2022/10/23 00:57:32;;;;;;;;;7.00;4.00;;;;;17.84;71.11;100658.53;5077894;27;45436;-40
2022/10/23 00:59:57;;;;;;;;;5.00;3.25;;;;;17.84;71.17;100655.03;5078098;27;45473;-41
2022/10/23 01:02:23;;;;;;;;;3.25;3.25;;;;;17.84;70.79;100650.47;5078259;27;45406;-43
2022/10/23 01:04:48;;;;;;;;;3.00;3.00;;;;;17.68;70.77;100624.66;5077632;27;46052;-43
2022/10/23 01:07:17;;;;;;;;;3.25;2.00;;;;;17.81;71.13;100631.19;5077755;27;45607;-43
2022/10/23 01:09:59;;;;;;;;;2.50;1.75;;;;;17.82;70.50;100622.91;5077587;27;45278;-41
2022/10/23 01:12:37;;;;;;;;;2.00;2.00;;;;;17.83;70.71;100618.38;5077823;27;45512;-43
2022/10/23 01:15:25;;;;;;;;;4.50;2.50;;;;;17.83;70.58;100626.47;5077529;27;45248;-43
2022/10/23 01:18:17;;;;;;;;;7.00;3.25;;;;;17.82;70.58;100614.00;5077716;28;45371;-43
2022/10/23 01:20:54;;;;;;;;;5.25;3.00;;;;;17.77;70.72;100621.84;5077806;27;45468;-42
2022/10/23 01:23:56;;;;;;;;;3.00;3.00;;;;;17.75;70.85;100610.47;5078039;27;45455;-45
2022/10/23 01:26:50;;;;;;;;;4.25;2.00;;;;;17.72;70.45;100611.66;5077337;27;46404;-41
2022/10/23 01:29:22;;;;;;;;;2.50;1.00;;;;;17.69;70.54;100606.66;5077397;27;45458;-44
2022/10/23 01:31:52;;;;;;;;;2.00;2.00;;;;;17.63;70.91;100588.63;5077670;27;45353;-43
2022/10/23 01:34:26;;;;;;;;;3.75;2.00;;;;;17.60;70.76;100580.94;5077844;27;45207;-44
2022/10/23 01:36:54;;;;;;;;;4.00;2.00;;;;;17.59;70.36;100574.72;5077227;27;45259;-44
2022/10/23 01:39:29;;;;;;;;;5.00;4.00;;;;;17.57;70.69;100576.81;5077128;27;45355;-43
2022/10/23 01:42:09;;;;;;;;;3.00;3.00;;;;;17.46;71.05;100577.34;5077387;27;45269;-44
2022/10/23 01:44:36;;;;;;;;;1.25;1.25;;;;;17.42;71.10;100578.75;5077458;28;45312;-42
2022/10/23 01:47:07;;;;;;;;;2.00;2.00;;;;;17.40;71.06;100583.47;5076952;27;46209;-42
2022/10/23 01:49:34;;;;;;;;;2.50;2.50;;;;;17.42;71.12;100584.13;5077162;27;45402;-42
2022/10/23 01:52:06;;;;;;;;;3.00;2.75;;;;;17.35;70.80;100567.09;5077284;27;45328;-44
2022/10/23 01:54:36;;;;;;;;;3.00;2.00;;;;;17.49;70.90;100585.00;5077260;27;45452;-41
2022/10/23 01:57:03;;;;;;;;;2.25;2.25;;;;;17.40;71.05;100562.81;5076764;27;47163;-44
2022/10/23 01:59:35;;;;;;;;;4.00;2.00;;;;;17.54;70.56;100573.66;5077088;27;45480;-42
2022/10/23 02:02:03;;;;;;;;;2.00;2.00;;;;;17.57;70.51;100567.88;5076957;27;45423;-42
2022/10/23 02:04:35;;;;;;;;;3.75;2.00;;;;;17.59;70.62;100577.41;5077480;27;45261;-43
2022/10/23 02:07:00;;;;;;;;;2.50;2.50;;;;;17.57;70.83;100568.72;5076956;27;46076;-42
2022/10/23 02:09:26;;;;;;;;;3.00;1.00;;;;;17.57;70.87;100562.50;5076911;27;45595;-42
2022/10/23 02:11:58;;;;;;;;;1.00;1.00;;;;;17.58;70.80;100556.94;5077220;27;45473;-43
2022/10/23 02:14:33;;;;;;;;;3.75;3.75;;;;;17.62;70.65;100547.44;5077127;27;45530;-41
2022/10/23 02:17:07;;;;;;;;;2.00;2.00;;;;;17.60;70.62;100536.03;5076622;28;46053;-42
2022/10/23 02:19:54;;;;;;;;;2.50;2.00;;;;;17.62;70.56;100544.75;5076721;27;45341;-41
2022/10/23 02:22:23;;;;;;;;;2.00;2.00;;;;;17.62;70.98;100543.94;5076924;28;45236;-41
2022/10/23 02:25:10;;;;;;;;;3.00;1.00;;;;;17.61;70.51;100539.56;5076988;28;45251;-41
2022/10/23 02:27:44;;;;;;;;;3.00;3.00;;;;;17.65;70.53;100532.75;5076660;27;46098;-42
2022/10/23 02:30:12;;;;;;;;;2.00;2.00;;;;;17.66;70.47;100527.19;5076751;27;45220;-43
2022/10/23 02:32:42;;;;;;;;;3.00;3.00;;;;;17.69;70.20;100524.09;5076717;27;45309;-41
2022/10/23 02:35:08;;;;;;;;;5.00;3.75;;;;;17.68;70.50;100511.66;5076947;27;45454;-43
2022/10/23 02:37:33;;;;;;;;;5.00;3.00;;;;;17.68;70.69;100517.06;5075031;28;45709;-42
2022/10/23 02:39:59;;;;;;;;;4.00;2.75;;;;;17.69;70.85;100517.88;5076779;27;45263;-43
2022/10/23 02:42:41;;;;;;;;;3.25;3.25;;;;;17.66;70.37;100508.38;5076803;27;45278;-43
2022/10/23 02:45:22;;;;;;;;;3.50;3.00;;;;;17.71;70.80;100508.59;5076881;27;45437;-42
2022/10/23 02:48:17;;;;;;;;;5.00;5.00;;;;;17.70;71.08;100500.72;5076194;27;47301;-45
2022/10/23 02:50:49;;;;;;;;;2.75;2.75;;;;;17.72;70.67;100495.97;5076242;27;45334;-42
2022/10/23 02:53:34;;;;;;;;;4.75;4.00;;;;;17.73;70.78;100496.78;5076566;27;45417;-45
2022/10/23 02:56:16;;;;;;;;;2.50;1.00;;;;;17.59;70.84;100475.22;5076489;27;45242;-42
2022/10/23 02:59:20;;;;;;;;;4.75;3.25;;;;;17.75;70.83;100492.09;5076414;27;46272;-42
2022/10/23 03:01:52;;;;;;;;;3.75;3.00;;;;;17.71;71.27;100487.06;5076158;28;45545;-42
2022/10/23 03:04:20;;;;;;;;;4.50;2.75;;;;;17.65;71.30;100474.41;5075753;27;45403;-43
2022/10/23 03:06:48;;;;;;;;;5.00;3.00;;;;;17.69;71.84;100472.97;5076643;27;45876;-43
2022/10/23 03:09:13;;;;;;;;;3.75;2.50;;;;;17.66;71.60;100470.72;5079302;27;45368;-42
2022/10/23 03:11:38;;;;;;;;;4.00;4.00;;;;;17.64;72.18;100467.38;5079730;27;45346;-42
2022/10/23 03:14:04;;;;;;;;;3.50;1.50;;;;;17.63;72.08;100463.03;5079726;27;45384;-41
2022/10/23 03:16:29;;;;;;;;;2.25;2.00;;;;;17.64;71.92;100461.16;5079678;27;45407;-44
2022/10/23 03:18:55;;;;;;;;;5.00;3.50;;;;;17.66;71.77;100472.56;5079569;27;45344;-43
2022/10/23 03:21:20;;;;;;;;;3.00;3.00;;;;;17.63;72.33;100464.88;5079408;27;45214;-41
2022/10/23 03:23:46;;;;;;;;;3.50;3.50;;;;;17.64;72.03;100462.00;5079502;28;45168;-42
2022/10/23 03:26:11;;;;;;;;;3.00;2.75;;;;;17.62;72.08;100449.78;5079607;27;45580;-45
2022/10/23 03:28:36;;;;;;;;;4.00;4.00;;;;;17.63;72.50;100454.13;5079260;27;45429;-41
2022/10/23 03:31:02;;;;;;;;;4.00;4.00;;;;;17.58;72.40;100430.53;5079502;27;45300;-44
2022/10/23 03:33:29;;;;;;;;;5.25;3.50;;;;;17.60;72.69;100431.13;5079429;27;45359;-45
2022/10/23 03:35:54;;;;;;;;;4.50;2.25;;;;;17.62;72.34;100437.16;5079407;27;45288;-41
2022/10/23 03:38:19;;;;;;;;;6.00;4.25;;;;;17.60;72.42;100441.91;5079169;27;45410;-44
2022/10/23 03:40:45;;;;;;;;;3.50;2.50;;;;;17.62;72.67;100442.53;5079085;27;45281;-42
2022/10/23 03:43:10;;;;;;;;;0.00;0.00;;;;;17.62;72.53;100441.72;5079356;27;45276;-41
2022/10/23 03:45:37;;;;;;;;;5.00;3.75;;;;;17.52;72.42;100430.47;5079258;28;45351;-41
2022/10/23 03:48:03;;;;;;;;;5.00;4.25;;;;;17.59;72.71;100437.56;5077911;28;45609;-40
2022/10/23 03:50:29;;;;;;;;;8.50;6.00;;;;;17.59;72.84;100448.31;5078945;27;45385;-42
2022/10/23 03:52:54;;;;;;;;;5.00;3.00;;;;;17.55;72.66;100428.22;5079192;27;45413;-41
2022/10/23 03:55:20;;;;;;;;;5.00;5.00;;;;;17.48;72.91;100402.31;5079336;27;45453;-42
2022/10/23 03:57:45;;;;;;;;;3.25;1.50;;;;;17.60;72.58;100433.00;5078554;27;45149;-40
2022/10/23 04:00:11;;;;;;;;;4.25;4.25;;;;;17.56;72.85;100410.22;5078745;27;45369;-42
2022/10/23 04:02:37;;;;;;;;;3.75;3.75;;;;;17.57;73.01;100428.00;5078907;27;45485;-43
2022/10/23 04:05:02;;;;;;;;;6.00;4.00;;;;;17.58;73.05;100440.47;5079156;27;45409;-42
2022/10/23 04:07:27;;;;;;;;;1.50;1.00;;;;;17.61;72.85;100450.78;5078679;27;46309;-40
2022/10/23 04:09:53;;;;;;;;;3.25;3.25;;;;;17.63;72.77;100446.06;5078618;27;45303;-42
2022/10/23 04:12:18;;;;;;;;;5.25;4.00;;;;;17.62;72.91;100445.22;5078744;27;45433;-43
2022/10/23 04:14:43;;;;;;;;;5.25;4.00;;;;;17.66;72.94;100441.13;5078869;27;46011;-42
2022/10/23 04:17:09;;;;;;;;;4.00;3.75;;;;;17.58;72.58;100429.69;5078482;27;48387;-42
2022/10/23 04:19:34;;;;;;;;;6.75;5.00;;;;;17.66;72.73;100438.44;5078517;27;45329;-44
2022/10/23 04:22:00;;;;;;;;;6.00;5.00;;;;;17.67;72.69;100431.19;5078678;27;45441;-42
2022/10/23 04:24:25;;;;;;;;;5.25;4.00;;;;;17.67;72.82;100437.38;5078742;27;45466;-46
2022/10/23 04:26:51;;;;;;;;;2.75;2.75;;;;;17.55;72.95;100425.53;5078258;27;46072;-45
2022/10/23 04:29:17;;;;;;;;;4.50;4.50;;;;;17.63;72.84;100451.44;5078414;27;45307;-41
2022/10/23 04:31:42;;;;;;;;;4.25;4.25;;;;;17.60;73.06;100449.97;5078378;27;45365;-42
2022/10/23 04:34:08;;;;;;;;;5.50;4.00;;;;;17.56;72.94;100437.13;5078594;27;45335;-43
2022/10/23 04:36:33;;;;;;;;;5.25;4.00;;;;;17.54;73.53;100445.41;5077841;27;46732;-40
2022/10/23 04:38:59;;;;;;;;;7.67;6.67;;;;;17.55;73.36;100440.84;5078042;27;45326;-42
2022/10/23 04:41:24;;;;;;;;;6.75;4.25;;;;;17.54;73.58;100429.25;5078199;27;45486;-43
2022/10/23 04:43:50;;;;;;;;;4.00;4.00;;;;;17.55;73.38;100412.09;5078305;27;45400;-44
2022/10/23 04:46:15;;;;;;;;;6.00;5.00;;;;;17.52;73.71;100401.72;5078045;27;45192;-42
2022/10/23 04:48:40;;;;;;;;;5.25;3.25;;;;;17.52;73.93;100406.28;5078152;27;45295;-44
2022/10/23 04:51:06;;;;;;;;;7.25;4.25;;;;;17.50;73.31;100425.31;5078241;27;45780;-42
2022/10/23 04:53:32;;;;;;;;;4.00;4.00;;;;;17.47;73.91;100447.22;5078262;27;45263;-41
2022/10/23 04:55:58;;;;;;;;;0.50;0.00;;;;;17.32;74.16;100438.44;5077819;28;45903;-42
2022/10/23 04:58:25;;;;;;;;;4.50;3.00;;;;;17.43;74.30;100452.16;5077951;27;45334;-42
2022/10/23 05:00:51;;;;;;;;;3.50;3.00;;;;;17.43;74.75;100451.34;5078104;27;45265;-42
2022/10/23 05:03:19;;;;;;;;;6.00;4.75;;;;;17.43;74.67;100454.03;5078108;27;45414;-41
2022/10/23 05:05:45;;;;;;;;;8.25;4.75;;;;;17.43;74.33;100440.56;5077461;27;46125;-44
2022/10/23 05:08:11;;;;;;;;;6.00;4.50;;;;;17.43;74.34;100440.56;5077728;28;45214;-42
2022/10/23 05:10:37;;;;;;;;;6.50;3.00;;;;;17.46;74.88;100438.31;5077831;27;45161;-43
2022/10/23 05:13:03;;;;;;;;;8.33;5.00;;;;;17.45;74.60;100420.53;5078035;27;45328;-41
2022/10/23 05:15:29;;;;;;;;;6.33;6.33;;;;;17.45;74.68;100411.63;5077737;27;46304;-42
2022/10/23 05:18:00;;;;;;;;;5.67;4.00;;;;;17.44;74.81;100404.59;5077727;27;45418;-42
2022/10/23 05:20:30;;;;;;;;;6.00;5.00;;;;;17.35;75.11;100411.16;5077781;27;45427;-42
2022/10/23 05:22:59;;;;;;;;;5.00;5.00;;;;;17.34;75.29;100404.13;5077871;27;45302;-42
2022/10/23 05:25:25;;;;;;;;;6.00;5.00;;;;;17.36;75.35;100405.59;5075835;28;46370;-41
2022/10/23 05:27:51;;;;;;;;;6.00;4.33;;;;;17.33;75.62;100395.25;5077446;27;45261;-42
2022/10/23 05:30:16;;;;;;;;;5.00;4.00;;;;;17.34;75.72;100388.81;5077023;27;45379;-41
2022/10/23 05:32:42;;;;;;;;;6.75;4.25;;;;;17.37;75.96;100366.09;5077459;27;45553;-42
2022/10/23 05:35:12;;;;;;;;;4.00;4.00;;;;;17.24;75.81;100342.69;5077572;27;45822;-41
2022/10/23 05:37:40;;;;;;;;;5.33;4.00;;;;;17.36;75.72;100361.72;5077288;27;45339;-42
2022/10/23 05:40:06;;;;;;;;;4.00;4.00;;;;;17.39;75.82;100350.59;5077329;27;45749;-42
2022/10/23 05:42:32;;;;;;;;;7.00;4.00;;;;;17.39;75.89;100356.78;5077350;27;45402;-43
2022/10/23 05:44:57;;;;;;;;;4.67;4.67;;;;;17.41;75.41;100353.91;5077132;27;45471;-42
2022/10/23 05:47:22;;;;;;;;;8.00;5.00;;;;;17.37;75.71;100356.16;5075863;28;45380;-43
2022/10/23 05:49:48;;;;;;;;;6.33;3.67;;;;;17.35;76.23;100346.63;5077310;27;45255;-42
2022/10/23 05:52:13;;;;;;;;;6.33;5.33;;;;;17.32;75.92;100334.44;5077783;27;45321;-42
2022/10/23 05:54:39;;;;;;;;;4.00;4.00;;;;;17.30;76.29;100343.72;5077095;27;46917;-41
2022/10/23 05:57:04;;;;;;;;;5.33;5.33;;;;;17.31;76.47;100348.06;5076898;27;45383;-43
2022/10/23 05:59:29;;;;;;;;;4.00;4.00;;;;;17.30;76.11;100357.16;5077367;27;45389;-41
2022/10/23 06:01:55;;;;;;;;;4.75;4.75;;;;;17.30;76.33;100355.31;5077157;27;45388;-41
2022/10/23 06:04:20;;;;;;;;;6.00;6.00;;;;;17.35;76.25;100365.47;5076901;27;45389;-42
2022/10/23 06:06:46;;;;;;;;;7.00;4.67;;;;;17.31;76.20;100361.50;5076892;27;45363;-41
2022/10/23 06:09:12;;;;;;;;;5.00;5.00;;;;;17.29;76.77;100358.19;5076951;28;45473;-42
2022/10/23 06:11:37;;;;;;;;;8.33;6.00;;;;;17.30;76.94;100352.63;5077154;27;45234;-43
2022/10/23 06:14:03;;;;;;;;;7.00;5.33;;;;;17.30;77.02;100347.25;5076483;27;46025;-42
2022/10/23 06:16:28;;;;;;;;;10.33;7.33;;;;;17.19;76.54;100345.97;5077048;27;45334;-44
2022/10/23 06:18:54;;;;;;;;;7.00;4.75;;;;;17.24;76.54;100349.91;5076938;27;45444;-41
2022/10/23 06:21:20;;;;;;;;;6.75;5.75;;;;;17.24;76.62;100352.59;5077037;27;45401;-42
2022/10/23 06:23:45;;;;;;;;;9.00;6.00;;;;;17.10;76.47;100339.06;5076729;27;45906;-44
2022/10/23 06:26:13;;;;;;;;;5.67;5.67;;;;;17.20;76.70;100355.69;5076548;27;45775;-42
2022/10/23 06:28:39;;;;;;;;;8.00;5.00;;;;;17.20;76.76;100353.00;5076720;27;45397;-43
2022/10/23 06:31:06;;;;;;;;;5.67;4.67;;;;;17.19;76.92;100339.72;5076983;27;45399;-42
2022/10/23 06:33:31;;;;;;;;;6.75;5.25;;;;;17.19;76.72;100339.72;5076439;27;47314;-41
2022/10/23 06:35:57;;;;;;;;;10.33;8.00;;;;;17.14;77.01;100337.66;5076526;27;45499;-42
2022/10/23 06:38:22;;;;;;;;;6.67;6.67;;;;;17.16;76.84;100337.47;5076667;27;45554;-42
2022/10/23 06:40:52;;;;;;;;;9.00;7.00;;;;;17.13;76.92;100332.47;5076771;27;45177;-42
2022/10/23 06:43:18;;;;;;;;;7.00;6.00;;;;;17.17;77.45;100331.06;5078128;27;45380;-46
2022/10/23 06:45:43;;;;;;;;;5.00;5.00;;;;;17.16;77.04;100335.59;5079768;27;45442;-43
2022/10/23 06:48:08;;;;;;;;;3.75;2.00;;;;;17.17;76.61;100321.13;5080104;27;45300;-43
2022/10/23 06:50:36;;;;;;;;;5.25;5.25;;;;;17.24;76.31;100329.22;5080343;27;45405;-43
2022/10/23 06:53:03;;;;;;;;;8.33;6.33;;;;;17.25;76.46;100332.75;5079851;27;46491;-44
2022/10/23 06:55:28;;;;;;;;;7.33;7.00;;;;;17.24;76.62;100337.31;5079959;27;45456;-44
2022/10/23 06:57:54;;;;;;;;;6.00;6.00;;;;;17.26;76.45;100327.16;5079845;27;45355;-42
2022/10/23 07:00:20;;;;;;;;;8.33;6.00;;;;;17.21;76.64;100313.50;5080247;27;45315;-42
2022/10/23 07:02:45;;;;;;;;;8.00;6.33;;;;;17.32;76.50;100314.75;5079690;27;46346;-41
2022/10/23 07:05:11;;;;;;;;;8.67;5.33;;;;;17.34;76.56;100308.16;5079475;28;45343;-42
2022/10/23 07:07:36;;;;;;;;;10.33;7.00;;;;;17.36;76.82;100306.13;5079769;27;45283;-45
2022/10/23 07:10:02;;;;;;;;;9.00;7.00;;;;;17.37;76.20;100310.47;5079805;27;45327;-42
2022/10/23 07:12:28;;;;;;;;;10.33;7.67;;;;;17.41;76.26;100306.34;5079357;27;46838;-42
2022/10/23 07:14:53;;;;;;;;;7.00;5.67;;;;;17.44;75.96;100297.03;5079394;27;45374;-43
2022/10/23 07:17:19;;;;;;;;;8.00;8.00;;;;;17.42;76.20;100291.03;5078589;28;45366;-43
2022/10/23 07:19:46;;;;;;;;;7.00;7.00;;;;;17.48;76.02;100305.53;5079679;27;45250;-43
2022/10/23 07:22:11;;;;;;;;;9.33;6.33;;;;;17.51;75.43;100316.69;5079335;27;45453;-44
2022/10/23 07:24:37;;;;;;;;;9.00;6.00;;;;;17.55;75.11;100312.56;5079368;27;45393;-43
2022/10/23 07:27:03;;;;;;;;;6.33;6.00;;;;;17.59;75.12;100318.38;5079385;27;45221;-43
2022/10/23 07:29:29;;;;;;;;;9.67;6.00;;;;;17.63;74.98;100314.25;5079358;28;45240;-42
2022/10/23 07:31:56;;;;;;;;;9.00;8.00;;;;;17.69;74.54;100314.25;5079115;27;46174;-41
2022/10/23 07:34:21;;;;;;;;;8.33;6.33;;;;;17.77;74.35;100318.66;5079134;27;45289;-44
2022/10/23 07:36:47;;;;;;;;;7.00;5.00;;;;;17.84;74.03;100310.59;5078052;28;45253;-47
2022/10/23 07:39:12;;;;;;;;;10.67;8.67;;;;;17.86;73.81;100303.16;5079507;27;45349;-44
2022/10/23 07:41:38;;;;;;;;;9.33;6.33;;;;;17.87;73.76;100289.50;5078809;27;46073;-43
2022/10/23 07:44:03;;;;;;;;;8.00;7.00;;;;;18.00;73.38;100307.53;5078887;27;45507;-43
2022/10/23 07:46:29;;;;;;;;;9.00;6.00;;;;;18.00;73.21;100294.06;5079120;27;45425;-42
2022/10/23 07:48:55;;;;;;;;;12.00;8.00;;;;;18.03;73.45;100287.44;5079218;27;45361;-41
2022/10/23 07:51:20;;;;;;;;;7.00;7.00;;;;;18.05;73.12;100296.97;5078832;27;46871;-41
2022/10/23 07:53:45;;;;;;;;;11.67;7.00;;;;;18.11;72.87;100298.81;5078394;27;45267;-42
2022/10/23 07:56:15;;;;;;;;;8.67;7.67;;;;;18.13;72.83;100296.75;5078962;27;45436;-42
2022/10/23 07:58:40;;;;;;;;;8.00;7.00;;;;;18.18;72.42;100288.88;5079172;27;45504;-42
2022/10/23 08:01:17;;;;;;;;;8.00;8.00;;;;;18.30;72.01;100293.66;5078696;27;46459;-42
2022/10/23 08:03:42;;;;;;;;;8.00;7.00;;;;;18.33;71.91;100294.06;5079022;27;45378;-45
2022/10/23 08:06:08;;;;;;;;;8.00;8.00;;;;;18.36;71.70;100299.03;5078625;28;45298;-42
2022/10/23 08:08:33;;;;;;;;;7.75;7.25;;;;;18.44;71.49;100296.13;5079090;27;45380;-43
2022/10/23 08:10:58;;;;;;;;;6.75;5.75;;;;;18.55;71.05;100294.66;5078834;27;45345;-46
2022/10/23 08:13:24;;;;;;;;;5.25;5.25;;;;;18.58;70.88;100288.00;5077187;28;45501;-44
2022/10/23 08:15:51;;;;;;;;;8.00;5.75;;;;;18.67;70.33;100286.78;5078846;27;45403;-44
2022/10/23 08:18:16;;;;;;;;;6.75;6.75;;;;;18.77;70.20;100286.34;5078770;27;45256;-43
2022/10/23 08:20:43;;;;;;;;;8.00;5.75;;;;;18.85;69.83;100284.25;5078565;27;46156;-43
2022/10/23 08:23:11;;;;;;;;;7.00;7.00;;;;;18.83;69.65;100270.16;5078013;27;45164;-43
2022/10/23 08:25:37;;;;;;;;;6.75;6.50;;;;;19.02;69.30;100290.00;5078532;27;45239;-43
2022/10/23 08:28:04;;;;;;;;;5.75;5.75;;;;;19.12;68.89;100282.28;5078660;28;45365;-45
2022/10/23 08:30:29;;;;;;;;;8.25;6.75;;;;;19.17;68.67;100274.41;5078098;27;46260;-42
2022/10/23 08:32:54;;;;;;;;;6.25;6.00;;;;;19.23;68.21;100263.78;5078322;27;45384;-43
2022/10/23 08:35:20;;;;;;;;;6.50;6.50;;;;;19.32;68.17;100271.41;5078561;27;45329;-42
2022/10/23 08:37:45;;;;;;;;;6.25;6.25;;;;;19.39;67.60;100274.91;5078545;27;45429;-46
2022/10/23 08:40:16;;;;;;;;;7.50;5.00;;;;;19.60;67.26;100267.53;5078299;27;46235;-44
2022/10/23 08:42:47;;;;;;;;;8.25;7.00;;;;;19.72;66.86;100271.22;5077880;27;45372;-43
2022/10/23 08:45:37;;;;;;;;;5.75;5.75;;;;;19.81;66.76;100278.00;5078070;27;45349;-43
2022/10/23 08:48:31;;;;;;;;;6.00;5.50;;;;;19.84;66.55;100266.75;5078281;28;45340;-43
2022/10/23 08:51:20;;;;;;;;;9.00;7.25;;;;;19.97;65.58;100278.50;5077733;27;47292;-43
2022/10/23 08:53:54;;;;;;;;;11.75;6.75;;;;;20.22;65.14;100273.09;5076551;27;45281;-46
2022/10/23 08:56:31;;;;;;;;;8.50;5.50;;;;;20.42;64.44;100271.03;5078005;28;45376;-42
2022/10/23 08:59:04;;;;;;;;;5.50;5.00;;;;;20.96;63.32;100282.16;5078000;27;45508;-43
2022/10/23 09:01:35;;;;;;;;;6.75;6.75;;;;;21.49;61.54;100276.91;5077821;27;47194;-43
2022/10/23 09:04:02;;;;;;;;;9.50;7.25;;;;;21.91;59.72;100247.09;5077619;27;45359;-43
2022/10/23 09:06:41;;;;;;;;;11.75;8.00;;;;;22.37;58.99;100254.47;5076790;27;45366;-44
2022/10/23 09:09:16;;;;;;;;;8.50;7.50;;;;;22.40;58.61;100250.47;5078021;27;45303;-43
2022/10/23 09:11:58;;;;;;;;;7.50;6.25;;;;;22.35;58.49;100274.75;5077330;28;47419;-42
2022/10/23 09:14:26;;;;;;;;;7.00;7.00;;;;;23.00;56.96;100263.72;5077712;27;45361;-43
2022/10/23 09:16:54;;;;;;;;;5.20;5.00;;;;;24.67;53.24;100257.91;5077773;28;45512;-43
2022/10/23 09:19:25;;;;;;;;;8.80;6.00;;;;;25.60;51.77;100259.56;5077985;28;45239;-43
2022/10/23 09:21:52;;;;;;;;;5.40;5.20;;;;;25.51;50.35;100235.78;5076206;28;46200;-41
2022/10/23 09:24:20;;;;;;;;;7.40;7.40;;;;;25.69;48.88;100245.47;5077393;27;45403;-42
2022/10/23 09:26:48;;;;;;;;;8.20;6.20;;;;;25.24;49.97;100252.09;5077620;27;45262;-44
2022/10/23 09:29:24;;;;;;;;;8.80;7.20;;;;;25.19;49.97;100254.75;5078003;27;45441;-43
2022/10/23 09:31:55;;;;;;;;;7.40;7.00;;;;;25.53;49.46;100255.38;5077813;27;45920;-49
2022/10/23 09:34:26;;;;;;;;;6.80;6.40;;;;;25.44;48.80;100246.84;5077951;28;45381;-43
2022/10/23 09:36:56;;;;;;;;;7.00;5.40;;;;;25.50;48.74;100237.69;5077954;27;45396;-46
2022/10/23 09:39:41;;;;;;;;;4.00;3.00;;;;;25.50;49.35;100236.84;5077809;27;45231;-45
2022/10/23 09:42:21;;;;;;;;;5.20;5.00;;;;;25.40;48.21;100234.84;5076677;27;46606;-43
2022/10/23 09:44:49;;;;;;;;;7.00;5.60;;;;;25.23;49.15;100225.94;5077145;27;45484;-41
2022/10/23 09:47:19;;;;;;;;;8.60;5.40;;;;;25.42;48.98;100240.88;5077472;28;45376;-45
2022/10/23 09:49:52;;;;;;;;;5.80;4.80;;;;;25.38;48.46;100232.38;5077515;27;45477;-42
2022/10/23 09:52:18;;;;;;;;;6.80;6.80;;;;;25.98;47.67;100238.66;5077121;27;46296;-41
2022/10/23 09:54:43;;;;;;;;;4.20;3.00;;;;;26.76;45.01;100227.16;5077412;27;45469;-43
2022/10/23 09:57:21;;;;;;;;;8.00;6.75;;;;;27.26;44.86;100220.22;5077246;27;45339;-41
2022/10/23 09:59:53;;;;;;;;;5.40;4.60;;;;;27.42;44.54;100224.63;5077233;27;45933;-45
2022/10/23 10:02:26;;;;;;;;;7.80;5.40;;;;;27.20;44.60;100216.69;5076584;27;46175;-43
2022/10/23 10:04:52;;;;;;;;;5.40;5.40;;;;;26.89;44.52;100220.41;5076995;27;45251;-44
2022/10/23 10:07:23;;;;;;;;;7.00;6.00;;;;;27.07;44.39;100209.78;5077256;27;45249;-41
2022/10/23 10:09:51;;;;;;;;;7.20;5.80;;;;;27.51;43.95;100211.25;5077282;27;45324;-42
2022/10/23 10:12:34;;;;;;;;;7.00;6.00;;;;;27.53;43.13;100204.44;5076695;27;45447;-43
2022/10/23 10:15:29;;;;;;;;;5.60;4.00;;;;;27.02;44.98;100211.69;5076902;27;45263;-42
2022/10/23 10:18:06;;;;;;;;;7.00;5.80;;;;;26.98;44.18;100205.13;5017166;28;45658;-40
2022/10/23 10:20:47;;;;;;;;;5.60;5.20;;;;;27.06;44.90;100219.09;5018077;28;45252;-42
2022/10/23 10:23:32;;;;;;;;;5.80;5.80;;;;;27.33;44.36;100215.34;5017709;28;45488;-43
2022/10/23 10:26:15;;;;;;;;;4.80;4.20;;;;;27.26;43.76;100206.59;5017654;28;45397;-41
2022/10/23 10:28:43;;;;;;;;;2.20;0.80;;;;;26.86;44.02;100213.56;5017671;28;45464;-42
2022/10/23 10:31:39;;;;;;;;;6.00;5.60;;;;;26.06;45.53;100200.00;5018057;28;45462;-42
2022/10/23 10:34:33;;;;;;;;;6.20;5.40;;;;;25.63;46.31;100198.31;5017667;28;45360;-44
2022/10/23 10:37:12;;;;;;;;;5.60;5.60;;;;;25.30;47.39;100193.91;5017751;28;45572;-42
2022/10/23 10:39:46;;;;;;;;;9.00;8.60;;;;;25.23;47.84;100201.44;5017715;28;45305;-42
2022/10/23 10:42:26;;;;;;;;;4.80;4.80;;;;;25.41;46.89;100197.53;5017712;28;45592;-43
2022/10/23 10:45:16;;;;;;;;;6.40;3.20;;;;;25.55;47.36;100205.03;5017603;28;45819;-46
2022/10/23 10:48:03;;;;;;;;;10.40;6.80;;;;;25.37;47.06;100200.78;5017332;28;45493;-44
2022/10/23 10:50:41;;;;;;;;;7.40;7.00;;;;;25.75;46.92;100195.41;5017715;28;45427;-43
2022/10/23 10:53:46;;;;;;;;;10.00;8.60;;;;;26.15;46.19;100181.25;5017977;28;45359;-41
2022/10/23 10:56:15;;;;;;;;;7.40;5.00;;;;;26.71;44.22;100161.63;5079613;28;46327;-43
2022/10/23 10:58:49;;;;;;;;;9.20;5.20;;;;;27.15;44.28;100183.09;5079952;27;45454;-44
2022/10/23 11:01:14;;;;;;;;;6.60;5.00;;;;;27.28;43.58;100180.66;5080004;27;45227;-43
2022/10/23 11:04:08;;;;;;;;;9.50;6.50;;;;;27.82;43.66;100179.34;5080184;28;45258;-42
2022/10/23 11:06:36;;;;;;;;;7.00;6.00;;;;;28.18;42.01;100168.31;5079710;27;46133;-43
2022/10/23 11:09:16;;;;;;;;;6.00;5.40;;;;;27.94;43.59;100176.28;5079770;27;45345;-42
2022/10/23 11:11:41;;;;;;;;;5.40;4.20;;;;;27.44;42.80;100165.09;5079581;27;45282;-41
2022/10/23 11:14:15;;;;;;;;;6.00;5.00;;;;;27.38;43.32;100162.63;5079639;27;45312;-43
2022/10/23 11:16:46;;;;;;;;;6.00;4.00;;;;;27.64;43.08;100163.44;5079505;27;45476;-45
2022/10/23 11:19:20;;;;;;;;;9.00;6.00;;;;;27.93;41.92;100159.06;5079427;27;45265;-42
2022/10/23 11:22:10;;;;;;;;;6.00;5.00;;;;;28.30;42.93;100155.16;5079582;27;45281;-41
2022/10/23 11:25:11;;;;;;;;;8.00;5.00;;;;;28.60;41.00;100138.66;5079623;28;45402;-41
2022/10/23 11:28:00;;;;;;;;;4.60;4.20;;;;;28.26;41.58;100137.66;5078759;27;45376;-42
2022/10/23 11:30:45;;;;;;;;;8.20;6.00;;;;;28.22;41.78;100126.47;5079126;27;45603;-40
2022/10/23 11:33:29;;;;;;;;;5.80;5.00;;;;;28.33;41.26;100125.34;5079449;27;45326;-42
2022/10/23 11:36:42;;;;;;;;;6.20;6.00;;;;;28.78;40.98;100139.09;5079521;27;45402;-43
2022/10/23 11:39:20;;;;;;;;;5.80;4.80;;;;;29.24;39.79;100130.63;5073562;27;46485;-44